createdAt,value
2022-11-26T00:01:21.468Z,91.70
2022-11-26T00:03:49.614Z,91.70
2022-11-26T00:06:45.985Z,91.60
2022-11-26T00:09:25.128Z,91.60
2022-11-26T00:11:52.032Z,91.70
2022-11-26T00:14:18.760Z,91.70
2022-11-26T00:16:45.637Z,91.70
2022-11-26T00:19:13.719Z,91.70
2022-11-26T00:21:42.292Z,91.70
2022-11-26T00:24:27.871Z,91.80
2022-11-26T00:26:58.794Z,91.70
2022-11-26T00:29:25.890Z,91.70
2022-11-26T00:31:53.032Z,91.70
2022-11-26T00:34:20.138Z,91.80
2022-11-26T00:36:48.334Z,91.70
2022-11-26T00:39:23.300Z,91.80
2022-11-26T00:41:52.438Z,91.80
2022-11-26T00:44:21.832Z,91.80
2022-11-26T00:46:49.857Z,91.80
2022-11-26T00:49:17.641Z,91.80
2022-11-26T00:51:46.214Z,91.80
2022-11-26T00:54:17.250Z,91.70
2022-11-26T00:56:45.289Z,91.80
2022-11-26T00:59:14.638Z,91.70
2022-11-26T01:01:42.100Z,91.80
2022-11-26T01:04:09.479Z,91.80
2022-11-26T01:06:40.046Z,91.70
2022-11-26T01:09:13.331Z,91.80
2022-11-26T01:11:43.707Z,91.80
2022-11-26T01:14:16.873Z,91.80
2022-11-26T01:16:44.871Z,91.80
2022-11-26T01:19:13.787Z,91.80
2022-11-26T01:21:40.689Z,91.80
2022-11-26T01:24:07.772Z,91.80
2022-11-26T01:26:41.382Z,91.80
2022-11-26T01:29:17.374Z,91.80
2022-11-26T01:31:45.153Z,91.80
2022-11-26T01:34:11.829Z,91.80
2022-11-26T01:36:40.899Z,91.80
2022-11-26T01:39:15.998Z,91.90
2022-11-26T01:42:01.545Z,91.80
2022-11-26T01:44:31.406Z,91.80
2022-11-26T01:46:59.443Z,91.80
2022-11-26T01:49:33.089Z,92.20
2022-11-26T01:52:21.530Z,91.80
2022-11-26T01:54:50.015Z,91.80
2022-11-26T01:57:24.937Z,91.80
2022-11-26T01:59:55.489Z,91.90
2022-11-26T02:02:24.835Z,91.80
2022-11-26T02:05:20.623Z,91.80
2022-11-26T02:07:48.397Z,91.80
2022-11-26T02:10:15.789Z,91.80
2022-11-26T02:12:43.398Z,91.90
2022-11-26T02:15:12.148Z,91.90
2022-11-26T02:17:55.450Z,91.90
2022-11-26T02:20:43.117Z,91.90
2022-11-26T02:23:35.143Z,91.80
2022-11-26T02:26:50.522Z,91.90
2022-11-26T02:29:59.999Z,91.80
2022-11-26T02:32:54.755Z,91.90
2022-11-26T02:35:39.667Z,92.30
2022-11-26T02:38:11.407Z,91.90
2022-11-26T02:40:38.596Z,91.90
2022-11-26T02:43:05.475Z,91.90
2022-11-26T02:45:38.480Z,91.90
2022-11-26T02:48:10.622Z,91.90
2022-11-26T02:50:42.864Z,91.90
2022-11-26T02:53:12.600Z,91.80
2022-11-26T02:55:44.686Z,91.80
2022-11-26T02:58:11.811Z,91.80
2022-11-26T03:00:41.750Z,91.80
2022-11-26T03:03:36.184Z,91.80
2022-11-26T03:06:08.242Z,91.90
2022-11-26T03:08:36.305Z,91.80
2022-11-26T03:11:03.397Z,91.90
2022-11-26T03:13:30.428Z,91.90
2022-11-26T03:15:57.470Z,91.90
2022-11-26T03:18:24.448Z,91.90
2022-11-26T03:20:52.610Z,91.80
2022-11-26T03:23:19.909Z,91.80
2022-11-26T03:25:47.047Z,91.80
2022-11-26T03:28:14.382Z,91.80
2022-11-26T03:30:41.352Z,91.80
2022-11-26T03:33:08.504Z,91.80
2022-11-26T03:35:35.500Z,91.80
2022-11-26T03:38:02.345Z,91.80
2022-11-26T03:40:29.125Z,91.80
2022-11-26T03:42:55.898Z,91.80
2022-11-26T03:45:22.725Z,91.80
2022-11-26T03:47:49.684Z,91.80
2022-11-26T03:50:16.853Z,91.80
2022-11-26T03:52:43.741Z,91.80
2022-11-26T03:55:11.341Z,91.90
2022-11-26T03:57:38.379Z,91.90
2022-11-26T04:00:08.749Z,91.90
2022-11-26T04:02:36.699Z,91.90
2022-11-26T04:05:04.265Z,91.90
2022-11-26T04:07:31.226Z,92.00
2022-11-26T04:09:58.133Z,91.90
2022-11-26T04:12:25.154Z,91.90
2022-11-26T04:14:51.936Z,91.90
2022-11-26T04:17:18.822Z,91.90
2022-11-26T04:19:45.728Z,92.40
2022-11-26T04:22:12.921Z,91.90
2022-11-26T04:24:40.286Z,91.90
2022-11-26T04:27:07.634Z,92.00
2022-11-26T04:29:36.320Z,92.00
2022-11-26T04:32:04.208Z,92.00
2022-11-26T04:34:31.352Z,92.00
2022-11-26T04:36:58.286Z,92.00
2022-11-26T04:39:25.240Z,92.00
2022-11-26T04:41:52.284Z,92.00
2022-11-26T04:44:19.216Z,91.90
2022-11-26T04:46:46.188Z,92.00
2022-11-26T04:49:13.042Z,92.00
2022-11-26T04:51:39.825Z,92.00
2022-11-26T04:54:11.446Z,92.00
2022-11-26T04:56:39.882Z,92.00
2022-11-26T04:59:06.658Z,92.00
2022-11-26T05:01:33.568Z,92.00
2022-11-26T05:04:00.373Z,92.00
2022-11-26T05:06:27.172Z,92.00
2022-11-26T05:08:53.999Z,92.40
2022-11-26T05:11:20.980Z,92.00
2022-11-26T05:13:47.748Z,92.00
2022-11-26T05:16:14.771Z,92.00
2022-11-26T05:18:41.733Z,92.00
2022-11-26T05:21:08.495Z,92.00
2022-11-26T05:23:35.407Z,92.00
2022-11-26T05:26:02.268Z,92.00
2022-11-26T05:28:28.956Z,92.00
2022-11-26T05:31:00.252Z,92.00
2022-11-26T05:33:27.397Z,92.10
2022-11-26T05:35:54.238Z,92.00
2022-11-26T05:38:21.344Z,92.10
2022-11-26T05:40:48.162Z,92.00
2022-11-26T05:43:15.333Z,92.10
2022-11-26T05:45:42.408Z,92.10
2022-11-26T05:48:09.263Z,92.10
2022-11-26T05:50:36.326Z,92.10
2022-11-26T05:53:03.803Z,92.10
2022-11-26T05:55:30.833Z,92.10
2022-11-26T05:57:57.647Z,92.10
2022-11-26T06:00:24.834Z,92.10
2022-11-26T06:02:51.711Z,92.10
2022-11-26T06:05:19.202Z,92.10
2022-11-26T06:07:46.356Z,92.10
2022-11-26T06:10:14.396Z,92.10
2022-11-26T06:12:41.605Z,92.10
2022-11-26T06:15:08.890Z,92.10
2022-11-26T06:17:35.797Z,92.10
2022-11-26T06:20:02.788Z,92.10
2022-11-26T06:22:29.704Z,92.10
2022-11-26T06:24:56.401Z,92.10
2022-11-26T06:27:23.307Z,92.10
2022-11-26T06:29:50.040Z,92.20
2022-11-26T06:32:16.766Z,92.20
2022-11-26T06:34:44.232Z,92.20
2022-11-26T06:37:11.520Z,92.20
2022-11-26T06:39:38.236Z,92.20
2022-11-26T06:42:05.039Z,92.20
2022-11-26T06:44:31.864Z,92.20
2022-11-26T06:46:58.808Z,92.30
2022-11-26T06:49:25.481Z,92.30
2022-11-26T06:51:53.594Z,92.30
2022-11-26T06:54:20.694Z,92.30
2022-11-26T06:56:47.659Z,92.30
2022-11-26T06:59:14.616Z,92.30
2022-11-26T07:01:41.399Z,92.30
2022-11-26T07:04:09.714Z,92.20
2022-11-26T07:06:37.971Z,92.20
2022-11-26T07:09:08.665Z,92.20
2022-11-26T07:11:36.671Z,92.20
2022-11-26T07:14:04.080Z,92.10
2022-11-26T07:16:31.090Z,92.20
2022-11-26T07:19:02.722Z,92.10
2022-11-26T07:21:30.116Z,92.20
2022-11-26T07:23:56.940Z,92.20
2022-11-26T07:26:24.222Z,92.20
2022-11-26T07:28:51.123Z,92.20
2022-11-26T07:31:20.802Z,92.20
2022-11-26T07:33:48.282Z,92.20
2022-11-26T07:36:19.611Z,92.20
2022-11-26T07:38:46.915Z,92.30
2022-11-26T07:41:16.689Z,92.30
2022-11-26T07:43:44.295Z,92.30
2022-11-26T07:46:14.653Z,92.30
2022-11-26T07:48:41.827Z,92.20
2022-11-26T07:51:20.028Z,92.20
2022-11-26T07:53:48.014Z,92.30
2022-11-26T07:56:15.157Z,92.30
2022-11-26T07:58:42.215Z,92.20
2022-11-26T08:01:11.457Z,92.20
2022-11-26T08:03:43.631Z,92.20
2022-11-26T08:06:13.282Z,92.20
2022-11-26T08:08:41.159Z,92.20
2022-11-26T08:11:26.617Z,92.20
2022-11-26T08:13:58.744Z,92.10
2022-11-26T08:16:28.705Z,92.20
2022-11-26T08:18:58.026Z,92.20
2022-11-26T08:21:25.102Z,92.20
2022-11-26T08:23:53.378Z,92.20
2022-11-26T08:26:30.672Z,92.20
2022-11-26T08:29:00.784Z,92.20
2022-11-26T08:31:28.323Z,92.20
2022-11-26T08:33:59.047Z,92.20
2022-11-26T08:36:27.223Z,92.20
2022-11-26T08:38:54.062Z,92.30
2022-11-26T08:41:20.816Z,92.20
2022-11-26T08:46:35.755Z,92.20
2022-11-26T08:49:03.362Z,92.20
2022-11-26T08:51:30.679Z,92.20
2022-11-26T08:53:57.697Z,92.20
2022-11-26T08:56:24.664Z,92.20
2022-11-26T08:58:51.716Z,92.20
2022-11-26T09:01:24.699Z,92.20
2022-11-26T09:03:53.185Z,92.20
2022-11-26T09:06:21.467Z,92.20
2022-11-26T09:09:07.282Z,92.20
2022-11-26T09:11:36.844Z,92.60
2022-11-26T09:14:04.714Z,92.30
2022-11-26T09:16:31.751Z,92.30
2022-11-26T09:19:02.526Z,92.30
2022-11-26T09:21:29.788Z,92.30
2022-11-26T09:23:56.766Z,92.30
2022-11-26T09:26:25.214Z,92.30
2022-11-26T09:28:52.368Z,92.30
2022-11-26T09:31:19.633Z,92.30
2022-11-26T09:33:46.701Z,92.30
2022-11-26T09:36:15.136Z,92.30
2022-11-26T09:38:42.628Z,92.40
2022-11-26T09:41:19.375Z,92.40
2022-11-26T09:44:03.551Z,92.40
2022-11-26T09:47:11.086Z,92.40
2022-11-26T09:49:58.807Z,92.40
2022-11-26T09:52:34.614Z,92.40
2022-11-26T09:55:15.283Z,92.50
2022-11-26T09:57:47.845Z,92.50
2022-11-26T10:00:53.418Z,92.50
2022-11-26T10:03:30.330Z,92.50
2022-11-26T10:06:06.664Z,92.50
2022-11-26T10:08:48.453Z,92.50
2022-11-26T10:11:38.023Z,92.50
2022-11-26T10:14:30.656Z,92.50
2022-11-26T10:17:29.539Z,92.40
2022-11-26T10:20:08.389Z,92.50
2022-11-26T10:22:45.891Z,92.50
2022-11-26T10:25:23.937Z,92.50
2022-11-26T10:27:51.673Z,92.60
2022-11-26T10:30:20.416Z,93.00
2022-11-26T10:32:49.530Z,92.60
2022-11-26T10:35:24.925Z,92.80
2022-11-26T10:37:52.298Z,92.80
2022-11-26T10:40:30.435Z,92.80
2022-11-26T10:43:24.452Z,92.80
2022-11-26T10:45:54.072Z,92.80
2022-11-26T10:48:32.103Z,92.80
2022-11-26T10:51:11.077Z,92.90
2022-11-26T10:54:02.642Z,92.80
2022-11-26T10:56:32.578Z,92.80
2022-11-26T10:59:03.830Z,92.80
2022-11-26T11:01:36.681Z,92.80
2022-11-26T11:04:23.138Z,92.80
2022-11-26T11:06:50.478Z,92.90
2022-11-26T11:09:28.402Z,92.90
2022-11-26T11:12:18.891Z,92.90
2022-11-26T11:14:47.845Z,92.90
2022-11-26T11:17:34.506Z,92.90
2022-11-26T11:20:23.217Z,92.90
2022-11-26T11:22:57.841Z,92.90
2022-11-26T11:25:33.764Z,92.90
2022-11-26T11:28:10.483Z,92.90
2022-11-26T11:30:41.027Z,93.00
2022-11-26T11:33:23.251Z,92.90
2022-11-26T11:36:26.955Z,92.90
2022-11-26T11:39:00.021Z,93.00
2022-11-26T11:41:42.902Z,93.10
2022-11-26T11:44:20.645Z,93.10
2022-11-26T11:47:10.958Z,93.10
2022-11-26T11:49:53.938Z,93.10
2022-11-26T11:52:58.146Z,93.10
2022-11-26T11:55:56.932Z,93.10
2022-11-26T11:58:41.729Z,93.10
2022-11-26T12:01:35.092Z,93.10
2022-11-26T12:04:20.535Z,93.20
2022-11-26T12:07:11.730Z,93.20
2022-11-26T12:09:39.853Z,93.20
2022-11-26T12:12:28.813Z,93.20
2022-11-26T12:15:07.224Z,93.20
2022-11-26T12:17:43.657Z,93.20
2022-11-26T12:20:28.631Z,93.20
2022-11-26T12:23:14.798Z,93.20
2022-11-26T12:25:48.285Z,93.20
2022-11-26T12:28:34.049Z,93.20
2022-11-26T12:31:03.089Z,93.20
2022-11-26T12:33:44.365Z,93.20
2022-11-26T12:36:22.653Z,93.20
2022-11-26T12:38:54.343Z,93.20
2022-11-26T12:42:01.126Z,93.20
2022-11-26T12:44:38.144Z,93.20
2022-11-26T12:47:19.784Z,93.20
2022-11-26T12:50:10.004Z,93.20
2022-11-26T12:52:50.378Z,93.20
2022-11-26T12:55:32.946Z,93.20
2022-11-26T12:58:43.405Z,93.20
2022-11-26T13:01:11.561Z,93.20
2022-11-26T13:03:38.662Z,93.30
2022-11-26T13:06:05.585Z,93.30
2022-11-26T13:08:54.444Z,93.30
2022-11-26T13:11:42.176Z,93.40
2022-11-26T13:14:36.137Z,93.40
2022-11-26T13:17:13.644Z,93.40
2022-11-26T13:20:05.650Z,93.40
2022-11-26T13:22:54.089Z,93.40
2022-11-26T13:26:02.371Z,93.40
2022-11-26T13:28:35.039Z,93.40
2022-11-26T13:31:31.213Z,93.40
2022-11-26T13:34:19.472Z,93.40
2022-11-26T13:37:14.851Z,93.40
2022-11-26T13:40:29.230Z,93.40
2022-11-26T13:43:26.754Z,93.40
2022-11-26T13:46:22.548Z,93.50
2022-11-26T13:48:59.172Z,93.40
2022-11-26T13:51:51.639Z,93.40
2022-11-26T13:54:31.908Z,93.40
2022-11-26T13:57:05.288Z,93.40
2022-11-26T13:59:33.161Z,93.40
2022-11-26T14:02:19.814Z,93.40
2022-11-26T14:04:49.828Z,93.40
2022-11-26T14:07:17.581Z,93.40
2022-11-26T14:09:53.051Z,93.40
2022-11-26T14:12:22.286Z,93.40
2022-11-26T14:14:51.281Z,93.40
2022-11-26T14:17:19.246Z,93.30
2022-11-26T14:19:48.944Z,93.30
2022-11-26T14:22:22.087Z,93.30
2022-11-26T14:24:49.035Z,93.30
2022-11-26T14:27:17.054Z,93.30
2022-11-26T14:29:44.553Z,93.30
2022-11-26T14:32:16.601Z,93.30
2022-11-26T14:34:55.675Z,93.30
2022-11-26T14:37:30.899Z,93.30
2022-11-26T14:39:59.954Z,93.30
2022-11-26T14:42:27.900Z,93.30
2022-11-26T14:45:27.441Z,93.30
2022-11-26T14:47:54.431Z,93.20
2022-11-26T14:50:24.328Z,93.30
2022-11-26T14:52:58.332Z,93.30
2022-11-26T14:55:28.941Z,93.60
2022-11-26T14:58:14.197Z,93.30
2022-11-26T15:00:41.065Z,93.30
2022-11-26T15:03:25.351Z,93.30
2022-11-26T15:05:52.157Z,93.30
2022-11-26T15:08:20.389Z,93.30
2022-11-26T15:10:58.281Z,93.30
2022-11-26T15:13:28.332Z,93.30
2022-11-26T15:15:57.879Z,93.30
2022-11-26T15:18:31.572Z,93.70
2022-11-26T15:21:00.443Z,93.30
2022-11-26T15:23:32.791Z,93.30
2022-11-26T15:26:01.152Z,93.20
2022-11-26T15:28:28.355Z,93.20
2022-11-26T15:31:00.681Z,93.30
2022-11-26T15:33:29.454Z,93.30
2022-11-26T15:36:00.214Z,93.30
2022-11-26T15:38:29.557Z,93.30
2022-11-26T15:41:07.156Z,93.30
2022-11-26T15:43:37.202Z,93.30
2022-11-26T15:46:14.753Z,93.30
2022-11-26T15:48:52.043Z,93.30
2022-11-26T15:51:36.034Z,93.20
2022-11-26T15:54:24.068Z,93.30
2022-11-26T15:56:54.803Z,93.20
2022-11-26T15:59:24.351Z,93.30
2022-11-26T16:01:51.172Z,93.30
2022-11-26T16:04:33.171Z,93.30
2022-11-26T16:07:17.474Z,93.30
2022-11-26T16:09:45.855Z,93.30
2022-11-26T16:12:26.077Z,93.30
2022-11-26T16:14:52.926Z,93.30
2022-11-26T16:17:20.887Z,93.30
2022-11-26T16:19:56.529Z,93.30
2022-11-26T16:22:28.752Z,93.20
2022-11-26T16:25:03.997Z,93.20
2022-11-26T16:27:32.152Z,93.20
2022-11-26T16:30:00.044Z,93.20
2022-11-26T16:32:26.925Z,93.20
2022-11-26T16:34:53.876Z,93.20
2022-11-26T16:37:29.590Z,93.20
2022-11-26T16:40:13.303Z,93.10
2022-11-26T16:42:40.264Z,93.20
2022-11-26T16:45:08.019Z,93.20
2022-11-26T16:47:36.739Z,93.20
2022-11-26T16:50:04.239Z,93.20
2022-11-26T16:52:32.207Z,93.20
2022-11-26T16:54:59.512Z,93.20
2022-11-26T16:57:27.905Z,93.20
2022-11-26T17:00:02.737Z,93.20
2022-11-26T17:02:30.020Z,93.20
2022-11-26T17:04:56.919Z,93.20
2022-11-26T17:07:28.579Z,93.10
2022-11-26T17:09:56.121Z,93.10
2022-11-26T17:12:25.074Z,93.10
2022-11-26T17:17:25.021Z,93.10
2022-11-26T17:19:52.660Z,93.10
2022-11-26T17:22:20.174Z,93.10
2022-11-26T17:24:47.067Z,93.10
2022-11-26T17:27:16.708Z,93.10
2022-11-26T17:29:44.983Z,93.10
2022-11-26T17:32:14.076Z,93.10
2022-11-26T17:34:41.311Z,93.10
2022-11-26T17:37:15.112Z,93.10
2022-11-26T17:39:42.793Z,93.10
2022-11-26T17:42:09.715Z,93.10
2022-11-26T17:44:36.495Z,93.10
2022-11-26T17:47:16.841Z,93.20
2022-11-26T17:49:45.544Z,93.20
2022-11-26T17:52:12.633Z,93.20
2022-11-26T17:54:39.636Z,93.20
2022-11-26T17:57:07.056Z,93.30
2022-11-26T17:59:33.852Z,93.20
2022-11-26T18:02:02.400Z,93.20
2022-11-26T18:04:29.513Z,93.20
2022-11-26T18:07:04.673Z,93.10
2022-11-26T18:09:32.000Z,93.10
2022-11-26T18:11:59.688Z,93.10
2022-11-26T18:14:26.913Z,93.10
2022-11-26T18:16:54.074Z,93.10
2022-11-26T18:19:23.222Z,93.10
2022-11-26T18:21:51.380Z,93.10
2022-11-26T18:24:18.528Z,93.10
2022-11-26T18:26:45.555Z,93.10
2022-11-26T18:29:12.617Z,93.10
2022-11-26T18:31:40.202Z,93.10
2022-11-26T18:34:07.254Z,93.00
2022-11-26T18:36:34.001Z,93.00
2022-11-26T18:39:03.675Z,93.50
2022-11-26T18:41:30.636Z,93.00
2022-11-26T18:43:57.485Z,93.00
2022-11-26T18:46:24.618Z,93.00
2022-11-26T18:48:51.636Z,93.00
2022-11-26T18:51:18.934Z,92.90
2022-11-26T18:53:45.866Z,92.90
2022-11-26T18:56:15.809Z,92.90
2022-11-26T18:58:42.972Z,92.90
2022-11-26T19:01:15.344Z,92.80
2022-11-26T19:03:44.276Z,92.80
2022-11-26T19:06:15.443Z,92.80
2022-11-26T19:08:43.123Z,92.80
2022-11-26T19:11:22.371Z,92.80
2022-11-26T19:13:49.702Z,92.70
2022-11-26T19:16:18.499Z,92.60
2022-11-26T19:18:46.575Z,92.60
2022-11-26T19:21:40.291Z,92.60
2022-11-26T19:24:13.414Z,92.50
2022-11-26T19:26:43.336Z,92.60
2022-11-26T19:29:16.780Z,92.60
2022-11-26T19:31:44.137Z,92.60
2022-11-26T19:34:14.359Z,92.60
2022-11-26T19:36:42.241Z,92.60
2022-11-26T19:39:09.091Z,92.50
2022-11-26T19:41:35.809Z,92.50
2022-11-26T19:44:05.453Z,92.50
2022-11-26T19:46:32.721Z,92.60
2022-11-26T19:48:59.639Z,92.50
2022-11-26T19:51:27.702Z,92.40
2022-11-26T19:53:55.993Z,92.40
2022-11-26T19:56:31.595Z,92.40
2022-11-26T19:59:00.404Z,92.40
2022-11-26T20:01:32.789Z,92.40
2022-11-26T20:04:01.581Z,92.40
2022-11-26T20:06:30.246Z,92.40
2022-11-26T20:08:59.017Z,92.40
2022-11-26T20:11:26.700Z,92.40
2022-11-26T20:13:54.711Z,92.40
2022-11-26T20:16:25.636Z,92.40
2022-11-26T20:18:53.216Z,92.40
2022-11-26T20:21:26.007Z,92.50
2022-11-26T20:23:54.440Z,92.50
2022-11-26T20:26:29.553Z,92.50
2022-11-26T20:29:00.234Z,92.40
2022-11-26T20:31:28.676Z,92.40
2022-11-26T20:33:56.001Z,92.40
2022-11-26T20:36:23.688Z,92.40
2022-11-26T20:38:54.758Z,92.30
2022-11-26T20:41:23.214Z,92.30
2022-11-26T20:43:54.966Z,92.40
2022-11-26T20:46:26.483Z,92.40
2022-11-26T20:48:53.613Z,92.40
2022-11-26T20:51:22.275Z,92.40
2022-11-26T20:53:50.979Z,92.50
2022-11-26T20:56:20.097Z,92.50
2022-11-26T20:58:48.041Z,92.90
2022-11-26T21:01:34.939Z,92.50
2022-11-26T21:04:02.382Z,92.50
2022-11-26T21:06:31.948Z,92.50
2022-11-26T21:09:04.724Z,92.40
2022-11-26T21:11:32.253Z,92.40
2022-11-26T21:14:01.341Z,92.40
2022-11-26T21:16:29.769Z,92.40
2022-11-26T21:18:57.299Z,92.40
2022-11-26T21:21:25.580Z,92.50
2022-11-26T21:23:53.565Z,92.50
2022-11-26T21:26:23.174Z,92.60
2022-11-26T21:28:58.715Z,92.60
2022-11-26T21:31:29.957Z,92.60
2022-11-26T21:34:07.889Z,92.60
2022-11-26T21:36:36.606Z,92.60
2022-11-26T21:39:04.415Z,92.70
2022-11-26T21:41:33.647Z,92.70
2022-11-26T21:44:03.974Z,92.70
2022-11-26T21:46:37.985Z,92.70
2022-11-26T21:49:16.777Z,92.70
2022-11-26T21:51:44.309Z,92.70
2022-11-26T21:54:12.146Z,92.70
2022-11-26T21:56:40.005Z,92.70
2022-11-26T21:59:06.826Z,92.70
2022-11-26T22:01:36.294Z,92.80
2022-11-26T22:04:07.535Z,92.70
2022-11-26T22:06:35.113Z,92.80
2022-11-26T22:09:02.925Z,92.80
2022-11-26T22:11:30.813Z,92.80
2022-11-26T22:13:57.795Z,92.80
2022-11-26T22:16:26.716Z,92.90
2022-11-26T22:18:56.384Z,92.90
2022-11-26T22:21:26.959Z,92.90
2022-11-26T22:24:00.258Z,92.90
2022-11-26T22:26:28.700Z,92.80
2022-11-26T22:28:56.242Z,92.80
2022-11-26T22:31:29.561Z,92.80
2022-11-26T22:34:04.776Z,92.80
2022-11-26T22:36:32.707Z,92.80
2022-11-26T22:39:01.878Z,92.80
2022-11-26T22:41:29.012Z,92.80
2022-11-26T22:43:57.706Z,92.70
2022-11-26T22:46:24.815Z,93.10
2022-11-26T22:48:59.835Z,92.80
2022-11-26T22:51:34.016Z,92.80
2022-11-26T22:54:07.109Z,92.80
2022-11-26T22:56:38.048Z,92.90
2022-11-26T22:59:07.354Z,92.90
2022-11-26T23:01:41.004Z,92.90
2022-11-26T23:04:23.772Z,92.90
2022-11-26T23:06:54.920Z,92.80
2022-11-26T23:09:22.997Z,92.90
2022-11-26T23:11:55.930Z,92.90
2022-11-26T23:14:24.149Z,92.90
2022-11-26T23:16:59.355Z,92.90
2022-11-26T23:19:30.623Z,92.90
2022-11-26T23:22:04.487Z,92.90
2022-11-26T23:24:37.738Z,92.90
2022-11-26T23:27:06.003Z,92.80
2022-11-26T23:29:34.728Z,92.80
2022-11-26T23:32:06.772Z,92.80
2022-11-26T23:35:08.030Z,92.80
2022-11-26T23:37:43.880Z,92.90
2022-11-26T23:40:15.838Z,92.80
2022-11-26T23:42:58.835Z,92.80
2022-11-26T23:45:36.324Z,92.80
2022-11-26T23:48:23.119Z,92.90
2022-11-26T23:50:54.796Z,92.90
2022-11-26T23:54:03.207Z,92.90
2022-11-26T23:56:47.837Z,92.90
2022-11-26T23:59:30.573Z,92.80
